sensor_id;sensor_type;location;lat;lon;timestamp;pressure;altitude;pressure_sealevel;temperature;humidity
14612;BME280;7392;52.078;11.650;2023-07-08T00:01:10;101301.47;;;17.83;71.85
14612;BME280;7392;52.078;11.650;2023-07-08T00:03:39;101306.94;;;17.79;72.21
14612;BME280;7392;52.078;11.650;2023-07-08T00:06:11;101304.34;;;17.74;71.85
14612;BME280;7392;52.078;11.650;2023-07-08T00:08:40;101313.41;;;17.70;71.60
14612;BME280;7392;52.078;11.650;2023-07-08T00:11:10;101300.13;;;17.64;71.52
14612;BME280;7392;52.078;11.650;2023-07-08T00:13:38;101301.97;;;17.62;71.53
14612;BME280;7392;52.078;11.650;2023-07-08T00:16:10;101304.72;;;17.58;72.37
14612;BME280;7392;52.078;11.650;2023-07-08T00:18:38;101294.97;;;17.54;72.85
14612;BME280;7392;52.078;11.650;2023-07-08T00:21:08;101304.00;;;17.50;73.05
14612;BME280;7392;52.078;11.650;2023-07-08T00:23:36;101302.28;;;17.48;73.15
14612;BME280;7392;52.078;11.650;2023-07-08T00:26:10;101308.59;;;17.44;72.94
14612;BME280;7392;52.078;11.650;2023-07-08T00:28:38;101304.22;;;17.39;73.28
14612;BME280;7392;52.078;11.650;2023-07-08T00:31:09;101299.88;;;17.35;73.66
14612;BME280;7392;52.078;11.650;2023-07-08T00:33:37;101299.00;;;17.32;74.03
14612;BME280;7392;52.078;11.650;2023-07-08T00:36:09;101293.75;;;17.29;74.63
14612;BME280;7392;52.078;11.650;2023-07-08T00:38:38;101298.28;;;17.25;74.96
14612;BME280;7392;52.078;11.650;2023-07-08T00:41:12;101293.88;;;17.21;75.28
14612;BME280;7392;52.078;11.650;2023-07-08T00:43:45;101302.00;;;17.18;75.57
14612;BME280;7392;52.078;11.650;2023-07-08T00:46:21;101301.22;;;17.13;75.68
14612;BME280;7392;52.078;11.650;2023-07-08T00:48:55;101305.75;;;17.09;75.69
14612;BME280;7392;52.078;11.650;2023-07-08T00:51:25;101309.44;;;17.05;75.62
14612;BME280;7392;52.078;11.650;2023-07-08T00:53:52;101301.47;;;17.00;75.84
14612;BME280;7392;52.078;11.650;2023-07-08T00:56:23;101289.91;;;16.97;76.15
14612;BME280;7392;52.078;11.650;2023-07-08T00:58:56;101299.78;;;16.95;76.20
14612;BME280;7392;52.078;11.650;2023-07-08T01:01:28;101298.97;;;16.91;76.30
14612;BME280;7392;52.078;11.650;2023-07-08T01:04:00;101297.31;;;16.84;76.12
14612;BME280;7392;52.078;11.650;2023-07-08T01:06:31;101299.09;;;16.82;76.30
14612;BME280;7392;52.078;11.650;2023-07-08T01:09:02;101296.53;;;16.77;76.56
14612;BME280;7392;52.078;11.650;2023-07-08T01:11:32;101295.75;;;16.72;76.27
14612;BME280;7392;52.078;11.650;2023-07-08T01:14:01;101302.91;;;16.70;76.47
14612;BME280;7392;52.078;11.650;2023-07-08T01:16:34;101295.84;;;16.66;76.83
14612;BME280;7392;52.078;11.650;2023-07-08T01:19:04;101295.91;;;16.61;77.69
14612;BME280;7392;52.078;11.650;2023-07-08T01:21:36;101289.72;;;16.58;77.74
14612;BME280;7392;52.078;11.650;2023-07-08T01:24:07;101288.03;;;16.54;77.97
14612;BME280;7392;52.078;11.650;2023-07-08T01:26:42;101287.22;;;16.50;78.31
14612;BME280;7392;52.078;11.650;2023-07-08T01:29:12;101287.25;;;16.47;78.66
14612;BME280;7392;52.078;11.650;2023-07-08T01:31:40;101284.66;;;16.42;78.85
14612;BME280;7392;52.078;11.650;2023-07-08T01:34:15;101281.19;;;16.36;78.56
14612;BME280;7392;52.078;11.650;2023-07-08T01:36:47;101279.50;;;16.32;78.57
14612;BME280;7392;52.078;11.650;2023-07-08T01:39:18;101282.25;;;16.27;78.72
14612;BME280;7392;52.078;11.650;2023-07-08T01:41:47;101286.78;;;16.23;79.34
14612;BME280;7392;52.078;11.650;2023-07-08T01:44:28;101280.59;;;16.20;79.82
14612;BME280;7392;52.078;11.650;2023-07-08T01:46:58;101275.28;;;16.15;80.03
14612;BME280;7392;52.078;11.650;2023-07-08T01:49:27;101279.81;;;16.12;80.61
14612;BME280;7392;52.078;11.650;2023-07-08T01:51:56;101279.00;;;16.08;80.45
14612;BME280;7392;52.078;11.650;2023-07-08T01:54:26;101280.84;;;16.04;80.80
14612;BME280;7392;52.078;11.650;2023-07-08T01:56:55;101275.56;;;15.98;80.40
14612;BME280;7392;52.078;11.650;2023-07-08T01:59:25;101284.59;;;15.94;80.38
14612;BME280;7392;52.078;11.650;2023-07-08T02:01:53;101279.25;;;15.91;80.94
14612;BME280;7392;52.078;11.650;2023-07-08T02:04:23;101275.75;;;15.87;81.19
14612;BME280;7392;52.078;11.650;2023-07-08T02:06:52;101280.28;;;15.84;81.35
14612;BME280;7392;52.078;11.650;2023-07-08T02:09:21;101277.63;;;15.81;81.63
14612;BME280;7392;52.078;11.650;2023-07-08T02:11:50;101278.59;;;15.77;81.36
14612;BME280;7392;52.078;11.650;2023-07-08T02:14:18;101270.59;;;15.74;81.30
14612;BME280;7392;52.078;11.650;2023-07-08T02:16:46;101277.78;;;15.70;81.79
14612;BME280;7392;52.078;11.650;2023-07-08T02:19:14;101284.19;;;15.60;81.08
14612;BME280;7392;52.078;11.650;2023-07-08T02:21:42;101278.91;;;15.52;81.53
14612;BME280;7392;52.078;11.650;2023-07-08T02:24:10;101270.94;;;15.47;81.73
14612;BME280;7392;52.078;11.650;2023-07-08T02:26:38;101271.88;;;15.45;82.38
14612;BME280;7392;52.078;11.650;2023-07-08T02:29:07;101267.44;;;15.42;82.67
14612;BME280;7392;52.078;11.650;2023-07-08T02:31:35;101264.84;;;15.39;82.77
14612;BME280;7392;52.078;11.650;2023-07-08T02:34:03;101270.22;;;15.38;82.82
14612;BME280;7392;52.078;11.650;2023-07-08T02:36:33;101277.38;;;15.36;83.52
14612;BME280;7392;52.078;11.650;2023-07-08T02:39:01;101274.75;;;15.32;83.42
14612;BME280;7392;52.078;11.650;2023-07-08T02:41:29;101275.66;;;15.30;83.75
14612;BME280;7392;52.078;11.650;2023-07-08T02:43:56;101268.56;;;15.29;84.07
14612;BME280;7392;52.078;11.650;2023-07-08T02:46:26;101265.03;;;15.25;84.14
14612;BME280;7392;52.078;11.650;2023-07-08T02:48:53;101273.06;;;15.24;84.29
14612;BME280;7392;52.078;11.650;2023-07-08T02:51:21;101279.34;;;15.20;84.28
14612;BME280;7392;52.078;11.650;2023-07-08T02:53:49;101269.59;;;15.17;84.53
14612;BME280;7392;52.078;11.650;2023-07-08T02:56:17;101272.31;;;15.14;83.99
14612;BME280;7392;52.078;11.650;2023-07-08T02:58:45;101274.16;;;15.09;83.64
14612;BME280;7392;52.078;11.650;2023-07-08T03:01:13;101278.69;;;15.04;83.64
14612;BME280;7392;52.078;11.650;2023-07-08T03:03:46;101272.50;;;14.99;84.08
14612;BME280;7392;52.078;11.650;2023-07-08T03:06:14;101284.06;;;14.99;85.01
14612;BME280;7392;52.078;11.650;2023-07-08T03:08:42;101278.75;;;14.96;84.71
14612;BME280;7392;52.078;11.650;2023-07-08T03:11:10;101270.78;;;14.93;84.69
14612;BME280;7392;52.078;11.650;2023-07-08T03:13:38;101269.03;;;14.90;84.85
14612;BME280;7392;52.078;11.650;2023-07-08T03:16:07;101269.91;;;14.89;85.48
14612;BME280;7392;52.078;11.650;2023-07-08T03:18:40;101269.03;;;14.89;85.62
14612;BME280;7392;52.078;11.650;2023-07-08T03:21:16;101267.31;;;14.86;85.53
14612;BME280;7392;52.078;11.650;2023-07-08T03:23:47;101279.78;;;14.84;85.93
14612;BME280;7392;52.078;11.650;2023-07-08T03:26:16;101280.72;;;14.82;85.62
14612;BME280;7392;52.078;11.650;2023-07-08T03:28:46;101273.59;;;14.81;86.06
14612;BME280;7392;52.078;11.650;2023-07-08T03:31:15;101269.16;;;14.80;86.43
14612;BME280;7392;52.078;11.650;2023-07-08T03:33:43;101269.16;;;14.78;86.61
14612;BME280;7392;52.078;11.650;2023-07-08T03:36:13;101273.66;;;14.77;86.88
14612;BME280;7392;52.078;11.650;2023-07-08T03:38:51;101270.06;;;14.75;87.14
14612;BME280;7392;52.078;11.650;2023-07-08T03:41:20;101267.41;;;14.75;87.37
14612;BME280;7392;52.078;11.650;2023-07-08T03:43:48;101271.00;;;14.74;87.61
14612;BME280;7392;52.078;11.650;2023-07-08T03:46:18;101263.88;;;14.73;87.95
14612;BME280;7392;52.078;11.650;2023-07-08T03:48:46;101261.19;;;14.75;88.24
14612;BME280;7392;52.078;11.650;2023-07-08T03:51:20;101266.56;;;14.72;88.38
14612;BME280;7392;52.078;11.650;2023-07-08T03:53:50;101272.81;;;14.72;88.45
14612;BME280;7392;52.078;11.650;2023-07-08T03:56:20;101265.69;;;14.70;88.02
14612;BME280;7392;52.078;11.650;2023-07-08T03:58:48;101269.31;;;14.67;87.58
14612;BME280;7392;52.078;11.650;2023-07-08T04:01:17;101266.63;;;14.67;88.25
14612;BME280;7392;52.078;11.650;2023-07-08T04:03:45;101261.31;;;14.63;87.87
14612;BME280;7392;52.078;11.650;2023-07-08T04:06:14;101269.38;;;14.59;88.49
14612;BME280;7392;52.078;11.650;2023-07-08T04:08:42;101266.69;;;14.59;89.21
14612;BME280;7392;52.078;11.650;2023-07-08T04:11:11;101277.38;;;14.61;89.91
14612;BME280;7392;52.078;11.650;2023-07-08T04:13:39;101266.69;;;14.61;89.30
14612;BME280;7392;52.078;11.650;2023-07-08T04:16:11;101269.34;;;14.61;89.43
14612;BME280;7392;52.078;11.650;2023-07-08T04:18:46;101270.25;;;14.60;89.58
14612;BME280;7392;52.078;11.650;2023-07-08T04:21:13;101269.34;;;14.63;89.77
14612;BME280;7392;52.078;11.650;2023-07-08T04:23:44;101276.44;;;14.65;89.94
14612;BME280;7392;52.078;11.650;2023-07-08T04:26:13;101283.53;;;14.69;90.24
14612;BME280;7392;52.078;11.650;2023-07-08T04:28:41;101286.19;;;14.72;90.41
14612;BME280;7392;52.078;11.650;2023-07-08T04:31:09;101287.91;;;14.76;90.40
14612;BME280;7392;52.078;11.650;2023-07-08T04:33:37;101287.88;;;14.78;90.56
14612;BME280;7392;52.078;11.650;2023-07-08T04:36:11;101279.78;;;14.84;90.81
14612;BME280;7392;52.078;11.650;2023-07-08T04:38:39;101288.69;;;14.88;91.10
14612;BME280;7392;52.078;11.650;2023-07-08T04:41:08;101286.84;;;14.93;91.46
14612;BME280;7392;52.078;11.650;2023-07-08T04:43:37;101289.44;;;14.98;91.64
14612;BME280;7392;52.078;11.650;2023-07-08T04:46:11;101284.03;;;15.04;91.63
14612;BME280;7392;52.078;11.650;2023-07-08T04:48:43;101285.72;;;15.09;92.42
14612;BME280;7392;52.078;11.650;2023-07-08T04:51:12;101287.41;;;15.17;93.05
14612;BME280;7392;52.078;11.650;2023-07-08T04:53:40;101285.53;;;15.23;93.66
14612;BME280;7392;52.078;11.650;2023-07-08T04:56:08;101278.31;;;15.30;93.82
14612;BME280;7392;52.078;11.650;2023-07-08T04:58:37;101281.78;;;15.38;94.45
14612;BME280;7392;52.078;11.650;2023-07-08T05:01:05;101290.59;;;15.46;94.93
14612;BME280;7392;52.078;11.650;2023-07-08T05:03:32;101282.44;;;15.54;95.33
14612;BME280;7392;52.078;11.650;2023-07-08T05:06:00;101295.75;;;15.62;96.08
14612;BME280;7392;52.078;11.650;2023-07-08T05:08:28;101298.25;;;15.73;97.06
14612;BME280;7392;52.078;11.650;2023-07-08T05:10:55;101295.50;;;15.82;97.62
14612;BME280;7392;52.078;11.650;2023-07-08T05:13:24;101300.66;;;15.93;97.67
14612;BME280;7392;52.078;11.650;2023-07-08T05:15:53;101294.28;;;16.01;96.49
14612;BME280;7392;52.078;11.650;2023-07-08T05:18:21;101303.03;;;16.13;95.56
14612;BME280;7392;52.078;11.650;2023-07-08T05:20:52;101304.66;;;16.23;94.65
14612;BME280;7392;52.078;11.650;2023-07-08T05:23:21;101299.09;;;16.34;94.51
14612;BME280;7392;52.078;11.650;2023-07-08T05:25:49;101304.25;;;16.46;93.45
14612;BME280;7392;52.078;11.650;2023-07-08T05:28:17;101307.63;;;16.57;93.24
14612;BME280;7392;52.078;11.650;2023-07-08T05:30:46;101308.28;;;16.70;92.78
14612;BME280;7392;52.078;11.650;2023-07-08T05:33:15;101311.69;;;16.78;91.89
14612;BME280;7392;52.078;11.650;2023-07-08T05:35:45;101317.81;;;16.88;90.79
14612;BME280;7392;52.078;11.650;2023-07-08T05:38:12;101315.84;;;16.98;89.06
14612;BME280;7392;52.078;11.650;2023-07-08T05:40:40;101318.28;;;17.09;88.95
14612;BME280;7392;52.078;11.650;2023-07-08T05:43:08;101313.63;;;17.18;88.98
14612;BME280;7392;52.078;11.650;2023-07-08T05:45:38;101306.22;;;17.30;89.08
14612;BME280;7392;52.078;11.650;2023-07-08T05:48:05;101300.69;;;17.39;88.65
14612;BME280;7392;52.078;11.650;2023-07-08T05:50:34;101301.31;;;17.50;88.92
14612;BME280;7392;52.078;11.650;2023-07-08T05:53:02;101300.25;;;17.57;87.79
14612;BME280;7392;52.078;11.650;2023-07-08T05:55:31;101292.88;;;17.67;86.45
14612;BME280;7392;52.078;11.650;2023-07-08T05:57:58;101298.88;;;17.79;85.23
14612;BME280;7392;52.078;11.650;2023-07-08T06:00:28;101295.94;;;17.91;84.12
14612;BME280;7392;52.078;11.650;2023-07-08T06:03:04;101298.31;;;18.03;83.22
14612;BME280;7392;52.078;11.650;2023-07-08T06:05:32;101292.72;;;18.12;82.32
14612;BME280;7392;52.078;11.650;2023-07-08T06:08:02;101302.41;;;18.20;81.40
14612;BME280;7392;52.078;11.650;2023-07-08T06:10:29;101297.69;;;18.29;80.78
14612;BME280;7392;52.078;11.650;2023-07-08T06:12:57;101298.38;;;18.36;80.35
14612;BME280;7392;52.078;11.650;2023-07-08T06:15:25;101295.50;;;18.44;79.62
14612;BME280;7392;52.078;11.650;2023-07-08T06:17:52;101302.44;;;18.53;79.57
14612;BME280;7392;52.078;11.650;2023-07-08T06:20:20;101307.59;;;18.62;79.10
14612;BME280;7392;52.078;11.650;2023-07-08T06:22:48;101301.97;;;18.71;78.24
14612;BME280;7392;52.078;11.650;2023-07-08T06:25:20;101300.81;;;18.80;77.12
14612;BME280;7392;52.078;11.650;2023-07-08T06:27:48;101301.56;;;18.86;77.29
14612;BME280;7392;52.078;11.650;2023-07-08T06:30:19;101295.00;;;18.97;77.79
14612;BME280;7392;52.078;11.650;2023-07-08T06:32:47;101294.72;;;19.06;76.71
14612;BME280;7392;52.078;11.650;2023-07-08T06:35:15;101296.28;;;19.15;75.82
14612;BME280;7392;52.078;11.650;2023-07-08T06:37:43;101288.75;;;19.26;75.12
14612;BME280;7392;52.078;11.650;2023-07-08T06:40:11;101285.81;;;19.35;73.89
14612;BME280;7392;52.078;11.650;2023-07-08T06:42:40;101291.78;;;19.45;73.68
14612;BME280;7392;52.078;11.650;2023-07-08T06:45:18;101296.84;;;19.56;74.03
14612;BME280;7392;52.078;11.650;2023-07-08T06:47:46;101296.59;;;19.63;72.96
14612;BME280;7392;52.078;11.650;2023-07-08T06:50:14;101299.03;;;19.73;72.36
14612;BME280;7392;52.078;11.650;2023-07-08T06:52:41;101297.88;;;19.82;72.28
14612;BME280;7392;52.078;11.650;2023-07-08T06:55:10;101292.19;;;19.91;72.23
14612;BME280;7392;52.078;11.650;2023-07-08T06:57:38;101287.41;;;19.99;71.64
14612;BME280;7392;52.078;11.650;2023-07-08T07:00:10;101292.50;;;20.08;71.67
14612;BME280;7392;52.078;11.650;2023-07-08T07:02:39;101288.56;;;20.18;71.13
14612;BME280;7392;52.078;11.650;2023-07-08T07:05:07;101289.13;;;20.28;70.49
14612;BME280;7392;52.078;11.650;2023-07-08T07:07:35;101283.31;;;20.41;70.16
14612;BME280;7392;52.078;11.650;2023-07-08T07:10:03;101286.53;;;20.52;69.24
14612;BME280;7392;52.078;11.650;2023-07-08T07:12:32;101282.59;;;20.62;69.12
14612;BME280;7392;52.078;11.650;2023-07-08T07:15:00;101274.97;;;20.73;68.38
14612;BME280;7392;52.078;11.650;2023-07-08T07:17:30;101284.44;;;20.85;68.09
14612;BME280;7392;52.078;11.650;2023-07-08T07:19:58;101272.31;;;20.97;67.41
14612;BME280;7392;52.078;11.650;2023-07-08T07:22:25;101289.00;;;21.08;67.69
14612;BME280;7392;52.078;11.650;2023-07-08T07:24:53;101280.50;;;21.19;67.23
14612;BME280;7392;52.078;11.650;2023-07-08T07:27:21;101281.78;;;21.33;66.00
14612;BME280;7392;52.078;11.650;2023-07-08T07:29:50;101277.72;;;21.44;65.77
14612;BME280;7392;52.078;11.650;2023-07-08T07:32:19;101269.16;;;21.57;65.88
14612;BME280;7392;52.078;11.650;2023-07-08T07:34:51;101272.16;;;21.73;65.24
14612;BME280;7392;52.078;11.650;2023-07-08T07:37:20;101277.06;;;21.85;64.89
14612;BME280;7392;52.078;11.650;2023-07-08T07:39:49;101280.06;;;21.99;64.51
14612;BME280;7392;52.078;11.650;2023-07-08T07:42:18;101277.56;;;22.15;64.65
14612;BME280;7392;52.078;11.650;2023-07-08T07:44:46;101275.09;;;22.33;64.31
14612;BME280;7392;52.078;11.650;2023-07-08T07:47:14;101275.28;;;22.49;64.24
14612;BME280;7392;52.078;11.650;2023-07-08T07:49:42;101279.16;;;22.64;63.53
14612;BME280;7392;52.078;11.650;2023-07-08T07:52:11;101267.72;;;22.77;62.59
14612;BME280;7392;52.078;11.650;2023-07-08T07:54:39;101271.69;;;22.89;61.33
14612;BME280;7392;52.078;11.650;2023-07-08T07:57:07;101275.47;;;23.06;61.01
14612;BME280;7392;52.078;11.650;2023-07-08T07:59:36;101266.72;;;23.20;60.84
14612;BME280;7392;52.078;11.650;2023-07-08T08:02:05;101270.44;;;23.36;60.80
14612;BME280;7392;52.078;11.650;2023-07-08T08:04:33;101273.47;;;23.49;60.01
14612;BME280;7392;52.078;11.650;2023-07-08T08:07:01;101271.75;;;23.65;59.63
14612;BME280;7392;52.078;11.650;2023-07-08T08:09:30;101274.69;;;23.80;58.74
14612;BME280;7392;52.078;11.650;2023-07-08T08:11:58;101273.06;;;23.95;58.40
14612;BME280;7392;52.078;11.650;2023-07-08T08:14:26;101273.34;;;24.07;57.45
14612;BME280;7392;52.078;11.650;2023-07-08T08:16:53;101267.19;;;24.21;56.94
14612;BME280;7392;52.078;11.650;2023-07-08T08:19:21;101273.59;;;24.38;58.15
14612;BME280;7392;52.078;11.650;2023-07-08T08:21:49;101277.22;;;24.56;59.09
14612;BME280;7392;52.078;11.650;2023-07-08T08:24:17;101270.09;;;24.71;57.33
14612;BME280;7392;52.078;11.650;2023-07-08T08:26:46;101276.63;;;24.84;55.92
14612;BME280;7392;52.078;11.650;2023-07-08T08:29:14;101279.56;;;24.97;55.36
14612;BME280;7392;52.078;11.650;2023-07-08T08:31:41;101284.22;;;25.11;54.94
14612;BME280;7392;52.078;11.650;2023-07-08T08:34:09;101272.69;;;25.23;54.93
14612;BME280;7392;52.078;11.650;2023-07-08T08:36:37;101280.13;;;25.37;53.96
14612;BME280;7392;52.078;11.650;2023-07-08T08:39:05;101277.66;;;25.48;53.04
14612;BME280;7392;52.078;11.650;2023-07-08T08:41:34;101280.66;;;25.60;51.47
14612;BME280;7392;52.078;11.650;2023-07-08T08:44:04;101279.94;;;25.72;51.45
14612;BME280;7392;52.078;11.650;2023-07-08T08:46:39;101281.00;;;25.85;51.45
14612;BME280;7392;52.078;11.650;2023-07-08T08:49:18;101283.53;;;26.04;51.41
14612;BME280;7392;52.078;11.650;2023-07-08T08:51:50;101290.88;;;26.18;50.83
14612;BME280;7392;52.078;11.650;2023-07-08T08:54:19;101287.16;;;26.35;50.82
14612;BME280;7392;52.078;11.650;2023-07-08T08:56:52;101283.25;;;26.55;52.01
14612;BME280;7392;52.078;11.650;2023-07-08T08:59:37;101282.06;;;26.75;51.64
14612;BME280;7392;52.078;11.650;2023-07-08T09:02:23;101279.72;;;26.98;50.51
14612;BME280;7392;52.078;11.650;2023-07-08T09:04:58;101281.38;;;27.15;48.80
14612;BME280;7392;52.078;11.650;2023-07-08T09:07:29;101281.31;;;27.31;47.96
14612;BME280;7392;52.078;11.650;2023-07-08T09:10:04;101274.56;;;27.51;47.62
14612;BME280;7392;52.078;11.650;2023-07-08T09:12:35;101270.00;;;27.78;48.67
14612;BME280;7392;52.078;11.650;2023-07-08T09:15:11;101273.75;;;28.05;47.71
14612;BME280;7392;52.078;11.650;2023-07-08T09:17:39;101277.19;;;28.21;45.50
14612;BME280;7392;52.078;11.650;2023-07-08T09:20:20;101275.72;;;28.43;45.38
14612;BME280;7392;52.078;11.650;2023-07-08T09:22:56;101272.06;;;28.69;44.79
14612;BME280;7392;52.078;11.650;2023-07-08T09:25:30;101273.72;;;28.98;44.56
14612;BME280;7392;52.078;11.650;2023-07-08T09:27:59;101264.06;;;29.31;45.78
14612;BME280;7392;52.078;11.650;2023-07-08T09:30:31;101267.50;;;29.58;45.35
14612;BME280;7392;52.078;11.650;2023-07-08T09:33:08;101263.75;;;29.72;40.65
14612;BME280;7392;52.078;11.650;2023-07-08T09:35:41;101259.00;;;29.87;41.45
14612;BME280;7392;52.078;11.650;2023-07-08T09:38:18;101255.03;;;30.15;42.10
14612;BME280;7392;52.078;11.650;2023-07-08T09:40:50;101258.50;;;30.42;41.68
14612;BME280;7392;52.078;11.650;2023-07-08T09:43:24;101254.94;;;30.64;40.41
14612;BME280;7392;52.078;11.650;2023-07-08T09:45:57;101263.44;;;30.83;40.17
14612;BME280;7392;52.078;11.650;2023-07-08T09:48:27;101261.50;;;30.97;39.01
14612;BME280;7392;52.078;11.650;2023-07-08T09:50:57;101254.28;;;31.07;38.01
14612;BME280;7392;52.078;11.650;2023-07-08T09:53:28;101254.91;;;31.22;37.99
14612;BME280;7392;52.078;11.650;2023-07-08T09:56:03;101253.88;;;31.45;39.94
14612;BME280;7392;52.078;11.650;2023-07-08T09:58:34;101253.22;;;31.76;40.95
14612;BME280;7392;52.078;11.650;2023-07-08T10:01:19;101265.59;;;32.14;40.42
14612;BME280;7392;52.078;11.650;2023-07-08T10:03:48;101259.72;;;32.39;39.03
14612;BME280;7392;52.078;11.650;2023-07-08T10:06:18;101266.25;;;32.59;36.56
14612;BME280;7392;52.078;11.650;2023-07-08T10:08:53;101263.16;;;32.74;35.24
14612;BME280;7392;52.078;11.650;2023-07-08T10:11:26;101263.03;;;32.75;33.82
14612;BME280;7392;52.078;11.650;2023-07-08T10:13:59;101260.63;;;32.82;34.29
14612;BME280;7392;52.078;11.650;2023-07-08T10:16:40;101258.56;;;33.05;35.18
14612;BME280;7392;52.078;11.650;2023-07-08T10:19:13;101257.81;;;33.24;34.33
14612;BME280;7392;52.078;11.650;2023-07-08T10:21:48;101258.72;;;33.44;34.39
14612;BME280;7392;52.078;11.650;2023-07-08T10:24:31;101257.75;;;33.55;32.48
14612;BME280;7392;52.078;11.650;2023-07-08T10:27:08;101254.63;;;33.69;32.81
14612;BME280;7392;52.078;11.650;2023-07-08T10:29:48;101253.91;;;33.87;32.77
14612;BME280;7392;52.078;11.650;2023-07-08T10:32:36;101248.16;;;34.00;33.90
14612;BME280;7392;52.078;11.650;2023-07-08T10:35:13;101255.25;;;34.12;32.70
14612;BME280;7392;52.078;11.650;2023-07-08T10:37:57;101248.56;;;34.15;31.09
14612;BME280;7392;52.078;11.650;2023-07-08T10:40:46;101236.09;;;34.40;33.12
14612;BME280;7392;52.078;11.650;2023-07-08T10:43:30;101241.16;;;34.74;33.26
14612;BME280;7392;52.078;11.650;2023-07-08T10:46:13;101237.31;;;34.84;30.20
14612;BME280;7392;52.078;11.650;2023-07-08T10:49:05;101245.16;;;34.89;28.71
14612;BME280;7392;52.078;11.650;2023-07-08T10:51:41;101237.22;;;34.66;27.75
14612;BME280;7392;52.078;11.650;2023-07-08T10:54:35;101237.22;;;34.57;29.22
14612;BME280;7392;52.078;11.650;2023-07-08T10:57:19;101233.75;;;34.64;30.05
14612;BME280;7392;52.078;11.650;2023-07-08T11:00:00;101245.75;;;34.83;29.92
14612;BME280;7392;52.078;11.650;2023-07-08T11:02:55;101242.59;;;34.68;26.70
14612;BME280;7392;52.078;11.650;2023-07-08T11:05:33;101234.03;;;34.61;26.55
14612;BME280;7392;52.078;11.650;2023-07-08T11:08:08;101234.16;;;34.70;27.60
14612;BME280;7392;52.078;11.650;2023-07-08T11:10:49;101236.75;;;34.81;26.99
14612;BME280;7392;52.078;11.650;2023-07-08T11:13:41;101235.81;;;35.00;28.32
14612;BME280;7392;52.078;11.650;2023-07-08T11:16:19;101233.03;;;35.10;27.96
14612;BME280;7392;52.078;11.650;2023-07-08T11:18:54;101229.00;;;35.04;27.87
14612;BME280;7392;52.078;11.650;2023-07-08T11:21:32;101232.63;;;35.05;26.22
14612;BME280;7392;52.078;11.650;2023-07-08T11:24:11;101226.28;;;34.84;25.74
14612;BME280;7392;52.078;11.650;2023-07-08T11:26:45;101230.13;;;34.74;25.43
14612;BME280;7392;52.078;11.650;2023-07-08T11:29:19;101227.63;;;34.71;25.83
14612;BME280;7392;52.078;11.650;2023-07-08T11:31:48;101219.78;;;34.86;26.84
14612;BME280;7392;52.078;11.650;2023-07-08T11:34:18;101227.47;;;34.92;25.49
14612;BME280;7392;52.078;11.650;2023-07-08T11:36:49;101220.31;;;34.99;25.90
14612;BME280;7392;52.078;11.650;2023-07-08T11:39:33;101227.47;;;35.19;26.23
14612;BME280;7392;52.078;11.650;2023-07-08T11:42:11;101229.88;;;35.32;25.02
14612;BME280;7392;52.078;11.650;2023-07-08T11:44:42;101219.06;;;35.49;25.97
14612;BME280;7392;52.078;11.650;2023-07-08T11:47:15;101210.91;;;35.75;26.73
14612;BME280;7392;52.078;11.650;2023-07-08T11:49:46;101211.84;;;36.02;25.88
14612;BME280;7392;52.078;11.650;2023-07-08T11:52:17;101218.38;;;36.19;25.92
14612;BME280;7392;52.078;11.650;2023-07-08T11:54:55;101214.66;;;36.46;26.22
14612;BME280;7392;52.078;11.650;2023-07-08T11:57:28;101217.88;;;36.67;25.71
14612;BME280;7392;52.078;11.650;2023-07-08T12:00:15;101206.84;;;36.94;25.42
14612;BME280;7392;52.078;11.650;2023-07-08T12:02:50;101212.13;;;37.13;25.96
14612;BME280;7392;52.078;11.650;2023-07-08T12:05:30;101200.81;;;37.33;24.79
14612;BME280;7392;52.078;11.650;2023-07-08T12:08:00;101209.13;;;37.41;23.85
14612;BME280;7392;52.078;11.650;2023-07-08T12:10:34;101200.50;;;37.52;23.80
14612;BME280;7392;52.078;11.650;2023-07-08T12:13:02;101205.75;;;37.64;23.25
14612;BME280;7392;52.078;11.650;2023-07-08T12:15:33;101201.13;;;37.80;23.25
14612;BME280;7392;52.078;11.650;2023-07-08T12:18:06;101198.00;;;38.08;23.95
14612;BME280;7392;52.078;11.650;2023-07-08T12:20:39;101195.97;;;38.35;24.32
14612;BME280;7392;52.078;11.650;2023-07-08T12:23:11;101198.00;;;38.58;23.56
14612;BME280;7392;52.078;11.650;2023-07-08T12:25:39;101195.00;;;38.84;24.19
14612;BME280;7392;52.078;11.650;2023-07-08T12:28:12;101186.63;;;39.08;23.97
14612;BME280;7392;52.078;11.650;2023-07-08T12:30:41;101189.22;;;39.02;21.24
14612;BME280;7392;52.078;11.650;2023-07-08T12:33:11;101193.03;;;39.01;21.51
14612;BME280;7392;52.078;11.650;2023-07-08T12:35:51;101195.97;;;38.99;20.67
14612;BME280;7392;52.078;11.650;2023-07-08T12:38:27;101188.97;;;38.72;20.13
14612;BME280;7392;52.078;11.650;2023-07-08T12:40:55;101183.63;;;38.46;19.98
14612;BME280;7392;52.078;11.650;2023-07-08T12:43:25;101182.94;;;38.44;21.04
14612;BME280;7392;52.078;11.650;2023-07-08T12:45:53;101185.03;;;38.33;20.69
14612;BME280;7392;52.078;11.650;2023-07-08T12:48:20;101181.88;;;38.45;20.34
14612;BME280;7392;52.078;11.650;2023-07-08T12:50:48;101177.75;;;38.41;20.31
14612;BME280;7392;52.078;11.650;2023-07-08T12:53:16;101180.34;;;38.42;19.32
14612;BME280;7392;52.078;11.650;2023-07-08T12:55:45;101186.56;;;38.52;19.93
14612;BME280;7392;52.078;11.650;2023-07-08T12:58:20;101179.59;;;38.73;20.72
14612;BME280;7392;52.078;11.650;2023-07-08T13:00:52;101180.75;;;38.95;21.31
14612;BME280;7392;52.078;11.650;2023-07-08T13:03:28;101177.53;;;39.15;20.25
14612;BME280;7392;52.078;11.650;2023-07-08T13:05:57;101186.28;;;38.95;19.03
14612;BME280;7392;52.078;11.650;2023-07-08T13:08:30;101183.47;;;39.03;19.89
14612;BME280;7392;52.078;11.650;2023-07-08T13:10:59;101175.13;;;39.12;20.70